地図

経路データ

SID SEASON NUMBER BASIN SUBBASIN NAME ISO_TIME NATURE LAT LON WMO_WIND WMO_PRES WMO_AGENCY TRACK_TYPE DIST2LAND LANDFALL IFLAG USA_AGENCY USA_ATCF_ID USA_LAT USA_LON USA_RECORD USA_STATUS USA_WIND USA_PRES USA_SSHS USA_R34_NE USA_R34_SE USA_R34_SW USA_R34_NW USA_R50_NE USA_R50_SE USA_R50_SW USA_R50_NW USA_R64_NE USA_R64_SE USA_R64_SW USA_R64_NW USA_POCI USA_ROCI USA_RMW USA_EYE TOKYO_LAT TOKYO_LON TOKYO_GRADE TOKYO_WIND TOKYO_PRES TOKYO_R50_DIR TOKYO_R50_LONG TOKYO_R50_SHORT TOKYO_R30_DIR TOKYO_R30_LONG TOKYO_R30_SHORT TOKYO_LAND CMA_LAT CMA_LON CMA_CAT CMA_WIND CMA_PRES HKO_LAT HKO_LON HKO_CAT HKO_WIND HKO_PRES NEWDELHI_LAT NEWDELHI_LON NEWDELHI_GRADE NEWDELHI_WIND NEWDELHI_PRES NEWDELHI_CI NEWDELHI_DP NEWDELHI_POCI REUNION_LAT REUNION_LON REUNION_TYPE REUNION_WIND REUNION_PRES REUNION_TNUM REUNION_CI REUNION_RMW REUNION_R34_NE REUNION_R34_SE REUNION_R34_SW REUNION_R34_NW REUNION_R50_NE REUNION_R50_SE REUNION_R50_SW REUNION_R50_NW REUNION_R64_NE REUNION_R64_SE REUNION_R64_SW REUNION_R64_NW BOM_LAT BOM_LON BOM_TYPE BOM_WIND BOM_PRES BOM_TNUM BOM_CI BOM_RMW BOM_R34_NE BOM_R34_SE BOM_R34_SW BOM_R34_NW BOM_R50_NE BOM_R50_SE BOM_R50_SW BOM_R50_NW BOM_R64_NE BOM_R64_SE BOM_R64_SW BOM_R64_NW BOM_ROCI BOM_POCI BOM_EYE BOM_POS_METHOD BOM_PRES_METHOD NADI_LAT NADI_LON NADI_CAT NADI_WIND NADI_PRES WELLINGTON_LAT WELLINGTON_LON WELLINGTON_WIND WELLINGTON_PRES DS824_LAT DS824_LON DS824_STAGE DS824_WIND DS824_PRES TD9636_LAT TD9636_LON TD9636_STAGE TD9636_WIND TD9636_PRES TD9635_LAT TD9635_LON TD9635_WIND TD9635_PRES TD9635_ROCI NEUMANN_LAT NEUMANN_LON NEUMANN_CLASS NEUMANN_WIND NEUMANN_PRES MLC_LAT MLC_LON MLC_CLASS MLC_WIND MLC_PRES USA_GUST BOM_GUST BOM_GUST_PER REUNION_GUST REUNION_GUST_PER USA_SEAHGT USA_SEARAD_NE USA_SEARAD_SE USA_SEARAD_SW USA_SEARAD_NW STORM_SPEED STORM_DIR
1949286N22311 1949 92 NA NA NOT_NAMED 1949-10-13 06:00:00 TS 21.8000 -49.2000 35 hurdat_atl main 1753 1714 O_____________ hurdat_atl AL141949 21.8000 -49.2000 TS 35 0 9 288
1949286N22311 1949 92 NA NA NOT_NAMED 1949-10-13 09:00:00 TS 21.9403 -49.6574 main 1704 1667 P_____________ AL141949 21.9403 -49.6574 TS 35 0 9 290
1949286N22311 1949 92 NA NA NOT_NAMED 1949-10-13 12:00:00 TS 22.1000 -50.1000 35 hurdat_atl main 1667 1632 O_____________ hurdat_atl AL141949 22.1000 -50.1000 TS 35 0 9 294
1949286N22311 1949 92 NA NA NOT_NAMED 1949-10-13 15:00:00 TS 22.2924 -50.5150 main 1632 1597 P_____________ AL141949 22.2924 -50.5150 TS 35 0 8 298
1949286N22311 1949 92 NA NA NOT_NAMED 1949-10-13 18:00:00 TS 22.5000 -50.9000 35 hurdat_atl main 1597 1563 O_____________ hurdat_atl AL141949 22.5000 -50.9000 TS 35 0 8 300
1949286N22311 1949 92 NA NA NOT_NAMED 1949-10-13 21:00:00 TS 22.7000 -51.2726 main 1563 1540 P_____________ AL141949 22.7000 -51.2726 TS 35 0 8 302
1949286N22311 1949 92 NA NA NOT_NAMED 1949-10-14 00:00:00 TS 22.9000 -51.6000 35 hurdat_atl main 1540 1517 O_____________ hurdat_atl AL141949 22.9000 -51.6000 TS 35 0 7 304
1949286N22311 1949 92 NA NA NOT_NAMED 1949-10-14 03:00:00 TS 23.0775 -51.8876 main 1517 1501 P_____________ AL141949 23.0775 -51.8876 TS 37 0 6 311
1949286N22311 1949 92 NA NA NOT_NAMED 1949-10-14 06:00:00 TS 23.3000 -52.1000 40 hurdat_atl main 1504 1498 O_____________ hurdat_atl AL141949 23.3000 -52.1000 TS 40 0 6 329
1949286N22311 1949 92 NA NA NOT_NAMED 1949-10-14 09:00:00 TS 23.5899 -52.2227 main 1506 1500 P_____________ AL141949 23.5899 -52.2227 TS 40 0 7 345
1949286N22311 1949 92 NA NA NOT_NAMED 1949-10-14 12:00:00 TS 24.0000 -52.3000 40 hurdat_atl main 1512 1512 O_____________ hurdat_atl AL141949 24.0000 -52.3000 TS 40 0 10 352
1949286N22311 1949 92 NA NA NOT_NAMED 1949-10-14 15:00:00 TS 24.5325 -52.3780 main 1525 1525 P_____________ AL141949 24.5325 -52.3780 TS 42 0 12 351
1949286N22311 1949 92 NA NA NOT_NAMED 1949-10-14 18:00:00 TS 25.2000 -52.5000 45 hurdat_atl main 1549 1549 O_____________ hurdat_atl AL141949 25.2000 -52.5000 TS 45 0 15 349
1949286N22311 1949 92 NA NA NOT_NAMED 1949-10-14 21:00:00 TS 25.9923 -52.6903 main 1574 1574 P_____________ AL141949 25.9923 -52.6903 TS 47 0 17 344
1949286N22311 1949 92 NA NA NOT_NAMED 1949-10-15 00:00:00 TS 26.8000 -53.0000 50 hurdat_atl main 1596 1594 O_____________ hurdat_atl AL141949 26.8000 -53.0000 TS 50 0 17 335
1949286N22311 1949 92 NA NA NOT_NAMED 1949-10-15 03:00:00 TS 27.4951 -53.4623 main 1600 1597 P_____________ AL141949 27.4951 -53.4623 TS 50 0 16 326
1949286N22311 1949 92 NA NA NOT_NAMED 1949-10-15 06:00:00 TS 28.1000 -54.0000 50 hurdat_atl main 1603 1603 O_____________ hurdat_atl AL141949 28.1000 -54.0000 TS 50 0 14 321
1949286N22311 1949 92 NA NA NOT_NAMED 1949-10-15 09:00:00 TS 28.6146 -54.4861 main 1604 1604 P_____________ AL141949 28.6146 -54.4861 TS 50 0 13 319
1949286N22311 1949 92 NA NA NOT_NAMED 1949-10-15 12:00:00 TS 29.1000 -55.0000 50 hurdat_atl main 1608 1601 O_____________ hurdat_atl AL141949 29.1000 -55.0000 TS 50 0 14 314
1949286N22311 1949 92 NA NA NOT_NAMED 1949-10-15 15:00:00 TS 29.5829 -55.6230 main 1609 1603 P_____________ AL141949 29.5829 -55.6230 TS 50 0 15 317
1949286N22311 1949 92 NA NA NOT_NAMED 1949-10-15 18:00:00 TS 30.2000 -56.2000 50 hurdat_atl main 1624 1577 O_____________ hurdat_atl AL141949 30.2000 -56.2000 TS 50 0 18 330
1949286N22311 1949 92 NA NA NOT_NAMED 1949-10-15 21:00:00 TS 31.1198 -56.6537 main 1573 1475 P_____________ AL141949 31.1198 -56.6537 TS 50 0 20 343
1949286N22311 1949 92 NA NA NOT_NAMED 1949-10-16 00:00:00 TS 32.1000 -56.9000 50 hurdat_atl main 1465 1396 O_____________ hurdat_atl AL141949 32.1000 -56.9000 TS 50 0 18 353
1949286N22311 1949 92 NA NA NOT_NAMED 1949-10-16 03:00:00 TS 32.8870 -56.9277 main 1387 1329 P_____________ AL141949 32.8870 -56.9277 TS 47 0 15 6
1949286N22311 1949 92 NA NA NOT_NAMED 1949-10-16 06:00:00 TS 33.6000 -56.7000 45 hurdat_atl main 1329 1279 O_____________ hurdat_atl AL141949 33.6000 -56.7000 TS 45 0 15 21
1949286N22311 1949 92 NA NA NOT_NAMED 1949-10-16 09:00:00 TS 34.3302 -56.2683 main 1279 1223 P_____________ AL141949 34.3302 -56.2683 TS 42 0 16 31
1949286N22311 1949 92 NA NA NOT_NAMED 1949-10-16 12:00:00 TS 35.0000 -55.7000 40 hurdat_atl main 1223 1184 O_____________ hurdat_atl AL141949 35.0000 -55.7000 TS 40 0 15 36
1949286N22311 1949 92 NA NA NOT_NAMED 1949-10-16 15:00:00 TS 35.5719 -55.1858 main 1177 1149 P_____________ AL141949 35.5719 -55.1858 TS 37 0 14 39
1949286N22311 1949 92 NA NA NOT_NAMED 1949-10-16 18:00:00 TS 36.1000 -54.6000 35 hurdat_atl main 1149 1112 O_____________ hurdat_atl AL141949 36.1000 -54.6000 TS 35 0 15 43
1949286N22311 1949 92 NA NA NOT_NAMED 1949-10-16 21:00:00 TS 36.6719 -53.9097 main 1101 1045 P_____________ AL141949 36.6719 -53.9097 TS 35 0 16 48
1949286N22311 1949 92 NA NA NOT_NAMED 1949-10-17 00:00:00 TS 37.2000 -53.1000 35 hurdat_atl main 1045 1003 O_____________ hurdat_atl AL141949 37.2000 -53.1000 TS 35 0 17 55
1949286N22311 1949 92 NA NA NOT_NAMED 1949-10-17 03:00:00 TS 37.6318 -52.1815 main 1004 968 P_____________ AL141949 37.6318 -52.1815 TS 35 0 17 62
1949286N22311 1949 92 NA NA NOT_NAMED 1949-10-17 06:00:00 TS 38.0000 -51.2000 35 hurdat_atl main 970 O_____________ hurdat_atl AL141949 38.0000 -51.2000 TS 35 0 17 65

IBTrACS Databaseについて

本データベースは、米国NOAAが公開する1842年以降の世界の熱帯低気圧のベストトラックデータアーカイブInternational Best Track Archive for Climate Stewardship (IBTrACS)を、ウェブで閲覧しやすい形式に変換したものです。

最終更新日:2021-11-26